createdAt,value
2022-11-03T00:01:04.051Z,59.42
2022-11-03T00:03:32.977Z,59.25
2022-11-03T00:06:06.397Z,59.27
2022-11-03T00:08:35.115Z,59.21
2022-11-03T00:11:04.231Z,59.25
2022-11-03T00:13:31.818Z,59.12
2022-11-03T00:15:59.444Z,59.01
2022-11-03T00:18:27.203Z,58.98
2022-11-03T00:21:02.763Z,58.89
2022-11-03T00:23:30.914Z,59.05
2022-11-03T00:26:05.354Z,58.84
2022-11-03T00:28:33.896Z,58.85
2022-11-03T00:31:02.055Z,58.91
2022-11-03T00:33:32.495Z,58.82
2022-11-03T00:36:00.142Z,58.67
2022-11-03T00:38:29.091Z,58.73
2022-11-03T00:40:56.844Z,58.57
2022-11-03T00:43:24.688Z,58.67
2022-11-03T00:45:52.303Z,58.52
2022-11-03T00:48:32.456Z,58.44
2022-11-03T00:51:04.383Z,58.49
2022-11-03T00:53:33.543Z,58.52
2022-11-03T00:56:01.564Z,58.50
2022-11-03T00:58:29.164Z,58.57
2022-11-03T01:01:01.072Z,58.29
2022-11-03T01:03:28.688Z,58.17
2022-11-03T01:06:13.651Z,58.15
2022-11-03T01:08:42.596Z,58.31
2022-11-03T01:11:28.375Z,58.09
2022-11-03T01:13:56.279Z,58.19
2022-11-03T01:16:23.947Z,58.02
2022-11-03T01:18:51.715Z,58.05
2022-11-03T01:21:19.299Z,57.95
2022-11-03T01:23:48.366Z,57.83
2022-11-03T01:26:16.300Z,57.95
2022-11-03T01:28:45.555Z,57.77
2022-11-03T01:31:13.895Z,57.62
2022-11-03T01:33:41.527Z,57.80
2022-11-03T01:36:09.729Z,57.79
2022-11-03T01:38:37.482Z,57.72
2022-11-03T01:41:07.575Z,57.77
2022-11-03T01:43:35.492Z,57.55
2022-11-03T01:46:05.266Z,57.69
2022-11-03T01:48:32.873Z,57.44
2022-11-03T01:51:00.564Z,57.52
2022-11-03T01:53:28.143Z,57.28
2022-11-03T01:55:55.742Z,57.42
2022-11-03T01:58:25.397Z,57.37
2022-11-03T02:00:54.745Z,57.35
2022-11-03T02:03:22.780Z,57.18
2022-11-03T02:05:50.543Z,57.46
2022-11-03T02:08:20.116Z,57.18
2022-11-03T02:10:47.872Z,57.38
2022-11-03T02:13:17.825Z,57.23
2022-11-03T02:15:47.396Z,57.09
2022-11-03T02:18:15.032Z,57.31
2022-11-03T02:20:42.689Z,57.17
2022-11-03T02:23:22.561Z,56.93
2022-11-03T02:25:51.882Z,57.16
2022-11-03T02:28:20.388Z,57.24
2022-11-03T02:30:51.870Z,57.09
2022-11-03T02:33:25.513Z,56.75
2022-11-03T02:35:56.271Z,56.90
2022-11-03T02:38:25.151Z,57.02
2022-11-03T02:40:55.287Z,57.02
2022-11-03T02:43:23.417Z,56.97
2022-11-03T02:45:50.971Z,56.83
2022-11-03T02:48:19.104Z,56.94
2022-11-03T02:50:47.735Z,57.08
2022-11-03T02:53:15.619Z,56.76
2022-11-03T02:55:46.599Z,56.86
2022-11-03T02:58:18.169Z,56.97
2022-11-03T03:00:50.877Z,56.85
2022-11-03T03:03:20.148Z,57.09
2022-11-03T03:05:47.804Z,57.16
2022-11-03T03:08:15.461Z,57.00
2022-11-03T03:10:44.076Z,56.83
2022-11-03T03:13:13.436Z,56.93
2022-11-03T03:15:46.187Z,57.46
2022-11-03T03:18:17.863Z,57.02
2022-11-03T03:20:48.287Z,57.15
2022-11-03T03:23:19.108Z,56.95
2022-11-03T03:25:48.120Z,56.97
2022-11-03T03:28:16.743Z,57.07
2022-11-03T03:30:46.140Z,57.09
2022-11-03T03:33:13.864Z,57.05
2022-11-03T03:35:42.522Z,57.17
2022-11-03T03:38:11.927Z,57.05
2022-11-03T03:40:40.163Z,57.32
2022-11-03T03:43:08.659Z,57.17
2022-11-03T03:45:36.400Z,57.26
2022-11-03T03:48:05.585Z,57.28
2022-11-03T03:50:34.577Z,57.28
2022-11-03T03:53:02.451Z,57.27
2022-11-03T03:55:35.043Z,57.04
2022-11-03T03:58:02.752Z,57.22
2022-11-03T04:00:30.417Z,57.27
2022-11-03T04:02:58.556Z,57.22
2022-11-03T04:05:27.949Z,57.26
2022-11-03T04:07:55.524Z,57.42
2022-11-03T04:10:23.525Z,57.35
2022-11-03T04:13:08.770Z,57.19
2022-11-03T04:15:54.128Z,57.58
2022-11-03T04:18:39.908Z,57.29
2022-11-03T04:21:28.126Z,57.24
2022-11-03T04:23:55.688Z,57.20
2022-11-03T04:26:23.909Z,57.31
2022-11-03T04:28:51.854Z,57.26
2022-11-03T04:31:19.665Z,57.36
2022-11-03T04:33:47.561Z,57.23
2022-11-03T04:36:19.300Z,57.10
2022-11-03T04:38:47.099Z,57.48
2022-11-03T04:41:17.017Z,57.10
2022-11-03T04:43:45.241Z,57.21
2022-11-03T04:46:13.321Z,57.36
2022-11-03T04:48:40.866Z,57.19
2022-11-03T04:51:14.347Z,57.16
2022-11-03T04:53:49.441Z,57.32
2022-11-03T04:56:18.444Z,57.21
2022-11-03T04:58:47.958Z,57.28
2022-11-03T05:01:19.592Z,57.41
2022-11-03T05:03:52.354Z,57.32
2022-11-03T05:06:21.035Z,57.40
2022-11-03T05:08:51.947Z,57.27
2022-11-03T05:11:31.888Z,57.24
2022-11-03T05:14:00.250Z,57.33
2022-11-03T05:16:28.800Z,57.22
2022-11-03T05:18:56.413Z,57.27
2022-11-03T05:21:24.067Z,57.47
2022-11-03T05:23:54.085Z,57.41
2022-11-03T05:26:23.656Z,57.04
2022-11-03T05:28:52.876Z,57.35
2022-11-03T05:31:23.518Z,57.45
2022-11-03T05:33:52.467Z,57.26
2022-11-03T05:36:21.583Z,57.43
2022-11-03T05:38:49.233Z,57.35
2022-11-03T05:41:21.815Z,57.43
2022-11-03T05:43:54.391Z,57.33
2022-11-03T05:46:22.003Z,57.52
2022-11-03T05:48:50.276Z,57.60
2022-11-03T05:51:20.544Z,57.36
2022-11-03T05:53:48.120Z,57.41
2022-11-03T05:56:20.000Z,57.41
2022-11-03T05:58:47.653Z,57.72
2022-11-03T06:01:18.197Z,57.44
2022-11-03T06:03:45.927Z,57.44
2022-11-03T06:06:16.081Z,57.57
2022-11-03T06:08:46.028Z,57.26
2022-11-03T06:11:22.759Z,57.27
2022-11-03T06:13:50.384Z,57.49
2022-11-03T06:16:34.816Z,57.38
2022-11-03T06:19:02.760Z,57.25
2022-11-03T06:21:30.318Z,57.50
2022-11-03T06:23:57.950Z,57.59
2022-11-03T06:26:28.148Z,57.59
2022-11-03T06:28:55.829Z,57.65
2022-11-03T06:31:24.900Z,57.52
2022-11-03T06:33:52.669Z,57.56
2022-11-03T06:36:21.555Z,57.62
2022-11-03T06:38:53.811Z,57.50
2022-11-03T06:41:24.253Z,57.68
2022-11-03T06:43:53.347Z,57.60
2022-11-03T06:46:22.584Z,57.56
2022-11-03T06:48:50.238Z,57.37
2022-11-03T06:51:20.572Z,57.44
2022-11-03T06:53:48.575Z,57.53
2022-11-03T06:56:17.027Z,57.54
2022-11-03T06:58:44.592Z,57.53
2022-11-03T07:01:16.230Z,57.39
2022-11-03T07:03:43.879Z,57.60
2022-11-03T07:06:21.131Z,57.59
2022-11-03T07:08:49.834Z,57.70
2022-11-03T07:11:18.308Z,57.62
2022-11-03T07:13:45.877Z,57.55
2022-11-03T07:16:18.651Z,57.80
2022-11-03T07:18:47.656Z,58.20
2022-11-03T07:21:29.936Z,57.34
2022-11-03T07:23:57.694Z,56.22
2022-11-03T07:26:25.368Z,56.45
2022-11-03T07:28:52.992Z,56.82
2022-11-03T07:31:23.420Z,56.97
2022-11-03T07:33:51.060Z,58.13
2022-11-03T07:36:20.695Z,58.33
2022-11-03T07:38:49.129Z,58.31
2022-11-03T07:41:18.292Z,58.42
2022-11-03T07:43:49.326Z,58.45
2022-11-03T07:46:18.421Z,58.71
2022-11-03T07:48:47.943Z,58.63
2022-11-03T07:51:17.454Z,59.07
2022-11-03T07:53:46.591Z,58.70
2022-11-03T07:56:15.294Z,58.65
2022-11-03T07:58:43.123Z,59.17
2022-11-03T08:01:21.252Z,58.84
2022-11-03T08:03:50.209Z,58.81
2022-11-03T08:06:19.948Z,58.81
2022-11-03T08:08:47.928Z,58.82
2022-11-03T08:11:15.651Z,59.50
2022-11-03T08:13:43.400Z,59.68
2022-11-03T08:16:10.969Z,59.68
2022-11-03T08:18:38.532Z,59.92
2022-11-03T08:21:08.230Z,59.93
2022-11-03T08:23:36.103Z,60.09
2022-11-03T08:26:03.826Z,60.08
2022-11-03T08:28:31.623Z,59.96
2022-11-03T08:31:02.225Z,59.78
2022-11-03T08:36:03.192Z,59.53
2022-11-03T08:38:37.036Z,59.08
2022-11-03T08:41:12.923Z,58.75
2022-11-03T08:43:40.737Z,58.60
2022-11-03T08:46:17.229Z,58.37
2022-11-03T08:48:45.921Z,58.28
2022-11-03T08:51:14.903Z,58.07
2022-11-03T08:53:44.193Z,57.72
2022-11-03T08:56:13.501Z,57.79
2022-11-03T08:58:42.900Z,57.02
2022-11-03T09:01:10.686Z,57.02
2022-11-03T09:03:38.611Z,57.00
2022-11-03T09:06:06.740Z,56.67
2022-11-03T09:11:23.383Z,53.49
2022-11-03T09:13:51.150Z,54.58
2022-11-03T09:16:18.776Z,54.58
2022-11-03T09:18:46.518Z,54.52
2022-11-03T09:21:14.731Z,54.74
2022-11-03T09:23:42.417Z,55.28
2022-11-03T09:26:10.090Z,55.17
2022-11-03T09:28:39.140Z,54.87
2022-11-03T09:31:07.248Z,55.25
2022-11-03T09:33:34.930Z,55.62
2022-11-03T09:36:02.762Z,55.25
2022-11-03T09:38:30.343Z,54.74
2022-11-03T09:40:58.048Z,54.94
2022-11-03T09:43:25.640Z,54.86
2022-11-03T09:45:55.188Z,55.06
2022-11-03T09:48:41.624Z,54.63
2022-11-03T09:51:10.302Z,54.64
2022-11-03T09:53:37.910Z,54.40
2022-11-03T09:56:05.982Z,53.90
2022-11-03T09:58:33.615Z,54.01
2022-11-03T10:01:02.781Z,54.08
2022-11-03T10:03:30.375Z,53.96
2022-11-03T10:05:58.091Z,53.36
2022-11-03T10:08:26.633Z,53.80
2022-11-03T10:10:54.409Z,53.92
2022-11-03T10:13:28.137Z,53.99
2022-11-03T10:15:56.138Z,53.85
2022-11-03T10:18:25.346Z,54.03
2022-11-03T10:20:53.044Z,54.24
2022-11-03T10:23:20.804Z,54.05
2022-11-03T10:25:48.459Z,53.87
2022-11-03T10:28:21.137Z,53.86
2022-11-03T10:31:13.936Z,53.58
2022-11-03T10:33:43.345Z,53.83
2022-11-03T10:36:23.957Z,53.89
2022-11-03T10:38:51.725Z,54.65
2022-11-03T10:41:20.305Z,54.54
2022-11-03T10:44:01.915Z,54.66
2022-11-03T10:46:48.940Z,55.30
2022-11-03T10:49:19.141Z,54.89
2022-11-03T10:51:49.172Z,55.55
2022-11-03T10:54:17.541Z,55.80
2022-11-03T10:56:45.266Z,55.58
2022-11-03T10:59:17.140Z,55.54
2022-11-03T11:01:44.965Z,55.61
2022-11-03T11:04:12.823Z,55.98
2022-11-03T11:06:41.922Z,56.42
2022-11-03T11:09:11.268Z,56.54
2022-11-03T11:11:39.107Z,56.80
2022-11-03T11:14:22.490Z,56.67
2022-11-03T11:16:51.466Z,56.84
2022-11-03T11:19:19.082Z,57.05
2022-11-03T11:22:15.760Z,56.82
2022-11-03T11:24:59.927Z,57.14
2022-11-03T11:28:02.930Z,57.40
2022-11-03T11:31:04.502Z,57.61
2022-11-03T11:33:34.159Z,57.74
2022-11-03T11:36:06.585Z,57.68
2022-11-03T11:39:12.395Z,58.14
2022-11-03T11:42:12.254Z,58.13
2022-11-03T11:45:02.960Z,58.25
2022-11-03T11:47:35.175Z,58.46
2022-11-03T11:50:23.385Z,58.53
2022-11-03T11:52:53.357Z,57.96
2022-11-03T11:55:26.307Z,58.11
2022-11-03T11:57:53.948Z,58.17
2022-11-03T12:00:23.850Z,58.04
2022-11-03T12:02:51.551Z,57.71
2022-11-03T12:05:20.798Z,58.13
2022-11-03T12:07:48.432Z,58.21
2022-11-03T12:10:16.664Z,58.36
2022-11-03T12:12:45.587Z,58.15
2022-11-03T12:16:05.259Z,57.62
2022-11-03T12:18:39.104Z,57.73
2022-11-03T12:21:09.676Z,57.73
2022-11-03T12:23:42.238Z,57.71
2022-11-03T12:26:17.480Z,57.67
2022-11-03T12:28:46.360Z,57.76
2022-11-03T12:31:14.002Z,57.29
2022-11-03T12:33:41.619Z,57.58
2022-11-03T12:36:09.804Z,57.64
2022-11-03T12:38:37.395Z,57.16
2022-11-03T12:41:18.942Z,57.39
2022-11-03T12:43:48.197Z,57.03
2022-11-03T12:46:16.289Z,56.95
2022-11-03T12:48:44.069Z,57.24
2022-11-03T12:51:12.916Z,55.86
2022-11-03T12:53:40.800Z,55.65
2022-11-03T12:56:08.772Z,55.89
2022-11-03T12:58:36.405Z,55.92
2022-11-03T13:01:05.460Z,57.04
2022-11-03T13:03:34.048Z,56.07
2022-11-03T13:06:02.481Z,56.28
2022-11-03T13:08:30.220Z,55.79
2022-11-03T13:10:57.892Z,55.92
2022-11-03T13:13:24.550Z,56.62
2022-11-03T13:15:52.977Z,56.54
2022-11-03T13:18:22.225Z,56.62
2022-11-03T13:20:49.774Z,56.48
2022-11-03T13:23:20.286Z,56.47
2022-11-03T13:25:50.787Z,55.96
2022-11-03T13:28:18.503Z,56.82
2022-11-03T13:30:46.028Z,56.44
2022-11-03T13:33:13.578Z,55.89
2022-11-03T13:35:42.614Z,55.71
2022-11-03T13:38:10.222Z,55.40
2022-11-03T13:43:25.498Z,55.78
2022-11-03T13:45:53.829Z,55.65
2022-11-03T13:49:21.543Z,56.30
2022-11-03T13:51:12.210Z,56.50
2022-11-03T13:56:28.388Z,56.70
2022-11-03T14:01:44.005Z,56.33
2022-11-03T14:07:01.924Z,55.95
2022-11-03T14:09:29.695Z,55.79
2022-11-03T14:12:15.065Z,55.33
2022-11-03T14:14:43.235Z,55.54
2022-11-03T14:17:13.841Z,55.23
2022-11-03T14:19:45.009Z,55.52
2022-11-03T14:22:18.397Z,55.31
2022-11-03T14:24:46.308Z,55.33
2022-11-03T14:27:16.657Z,54.74
2022-11-03T14:29:44.475Z,54.34
2022-11-03T14:32:12.914Z,54.46
2022-11-03T14:34:40.618Z,54.09
2022-11-03T14:37:09.152Z,53.99
2022-11-03T14:39:38.726Z,54.41
2022-11-03T14:42:05.740Z,53.61
2022-11-03T14:44:33.678Z,54.17
2022-11-03T14:47:02.666Z,53.74
2022-11-03T14:49:30.319Z,54.09
2022-11-03T14:51:59.744Z,53.73
2022-11-03T14:54:27.413Z,54.22
2022-11-03T14:56:56.827Z,53.84
2022-11-03T14:59:25.312Z,53.58
2022-11-03T15:01:53.336Z,53.83
2022-11-03T15:04:21.056Z,53.89
2022-11-03T15:06:48.877Z,54.26
2022-11-03T15:09:16.570Z,53.62
2022-11-03T15:11:44.371Z,54.36
2022-11-03T15:14:13.412Z,54.65
2022-11-03T15:16:41.533Z,54.64
2022-11-03T15:19:09.107Z,54.93
2022-11-03T15:21:36.791Z,55.05
2022-11-03T15:26:52.358Z,55.06
2022-11-03T15:29:23.827Z,55.26
2022-11-03T15:31:51.497Z,55.47
2022-11-03T15:34:19.100Z,55.59
2022-11-03T15:36:46.712Z,55.76
2022-11-03T15:39:14.402Z,55.85
2022-11-03T15:41:42.012Z,55.65
2022-11-03T15:44:09.966Z,55.78
2022-11-03T15:46:38.909Z,56.06
2022-11-03T15:49:06.580Z,56.15
2022-11-03T15:51:34.222Z,56.38
2022-11-03T15:54:02.403Z,56.40
2022-11-03T15:56:30.158Z,56.46
2022-11-03T15:58:57.769Z,56.40
2022-11-03T16:01:25.535Z,56.50
2022-11-03T16:03:54.554Z,56.71
2022-11-03T16:06:27.003Z,56.90
2022-11-03T16:09:02.659Z,57.37
2022-11-03T16:11:30.246Z,57.39
2022-11-03T16:13:57.807Z,57.83
2022-11-03T16:16:25.454Z,59.12
2022-11-03T16:18:54.402Z,60.73
2022-11-03T16:21:22.023Z,60.63
2022-11-03T16:23:49.650Z,61.30
2022-11-03T16:26:21.644Z,63.22
2022-11-03T16:28:49.252Z,63.97
2022-11-03T16:31:16.848Z,66.33
2022-11-03T16:33:44.705Z,67.53
2022-11-03T16:36:13.664Z,68.86
2022-11-03T16:38:41.226Z,69.45
2022-11-03T16:41:08.894Z,70.24
2022-11-03T16:43:36.478Z,70.02
2022-11-03T16:46:22.456Z,69.26
2022-11-03T16:49:05.069Z,68.50
2022-11-03T16:51:34.029Z,67.90
2022-11-03T16:54:01.650Z,67.75
2022-11-03T16:56:29.560Z,67.65
2022-11-03T16:58:57.404Z,66.23
2022-11-03T17:01:25.110Z,66.69
2022-11-03T17:03:53.959Z,66.24
2022-11-03T17:06:21.652Z,66.05
2022-11-03T17:08:53.441Z,65.82
2022-11-03T17:11:35.770Z,63.88
2022-11-03T17:14:07.221Z,63.27
2022-11-03T17:16:34.900Z,62.74
2022-11-03T17:19:02.653Z,63.67
2022-11-03T17:21:30.262Z,63.17
2022-11-03T17:23:59.957Z,63.06
2022-11-03T17:26:30.684Z,63.17
2022-11-03T17:28:58.448Z,63.71
2022-11-03T17:31:26.113Z,63.66
2022-11-03T17:33:54.990Z,64.08
2022-11-03T17:36:22.517Z,64.31
2022-11-03T17:38:50.573Z,64.36
2022-11-03T17:41:19.503Z,64.36
2022-11-03T17:43:47.459Z,64.63
2022-11-03T17:46:16.305Z,65.16
2022-11-03T17:48:44.115Z,65.36
2022-11-03T17:51:13.649Z,65.53
2022-11-03T17:53:42.155Z,65.45
2022-11-03T17:56:29.142Z,65.77
2022-11-03T17:58:59.398Z,65.70
2022-11-03T18:01:27.648Z,65.49
2022-11-03T18:03:56.439Z,65.25
2022-11-03T18:06:25.348Z,65.35
2022-11-03T18:08:53.032Z,65.55
2022-11-03T18:11:51.038Z,65.65
2022-11-03T18:14:19.980Z,65.40
2022-11-03T18:16:47.588Z,65.17
2022-11-03T18:19:15.873Z,65.31
2022-11-03T18:21:43.828Z,65.38
2022-11-03T18:24:12.978Z,64.78
2022-11-03T18:26:40.757Z,65.22
2022-11-03T18:29:08.892Z,64.77
2022-11-03T18:31:39.464Z,64.18
2022-11-03T18:34:08.133Z,64.08
2022-11-03T18:36:35.698Z,63.32
2022-11-03T18:39:03.671Z,62.50
2022-11-03T18:41:39.187Z,61.64
2022-11-03T18:44:18.664Z,61.93
2022-11-03T18:46:47.869Z,61.55
2022-11-03T18:49:15.647Z,61.05
2022-11-03T18:51:45.232Z,61.35
2022-11-03T18:54:13.825Z,61.64
2022-11-03T18:56:41.490Z,61.16
2022-11-03T18:59:10.761Z,61.38
2022-11-03T19:01:38.463Z,61.28
2022-11-03T19:04:10.856Z,60.83
2022-11-03T19:06:38.457Z,60.07
2022-11-03T19:09:06.069Z,60.46
2022-11-03T19:11:33.641Z,60.68
2022-11-03T19:14:01.416Z,60.63
2022-11-03T19:16:30.685Z,60.93
2022-11-03T19:18:58.388Z,60.20
2022-11-03T19:21:27.547Z,60.41
2022-11-03T19:23:58.290Z,60.34
2022-11-03T19:26:27.880Z,60.08
2022-11-03T19:28:57.168Z,60.24
2022-11-03T19:31:25.691Z,60.46
2022-11-03T19:33:54.069Z,60.72
2022-11-03T19:36:21.797Z,60.22
2022-11-03T19:38:50.895Z,60.22
2022-11-03T19:41:36.375Z,59.60
2022-11-03T19:44:06.907Z,59.79
2022-11-03T19:46:34.556Z,59.82
2022-11-03T19:49:02.330Z,60.00
2022-11-03T19:51:30.491Z,58.94
2022-11-03T19:53:59.492Z,59.23
2022-11-03T19:56:27.096Z,59.45
2022-11-03T19:58:54.881Z,59.67
2022-11-03T20:01:23.383Z,58.96
2022-11-03T20:03:51.020Z,58.84
2022-11-03T20:06:19.559Z,58.51
2022-11-03T20:08:47.599Z,59.10
2022-11-03T20:11:16.647Z,59.04
2022-11-03T20:13:44.344Z,58.75
2022-11-03T20:16:13.173Z,58.72
2022-11-03T20:18:41.083Z,58.71
2022-11-03T20:21:09.011Z,58.37
2022-11-03T20:23:39.141Z,57.53
2022-11-03T20:26:07.277Z,56.31
2022-11-03T20:28:37.604Z,56.37
2022-11-03T20:31:05.361Z,56.72
2022-11-03T20:33:33.050Z,56.60
2022-11-03T20:36:01.336Z,56.78
2022-11-03T20:38:29.137Z,56.64
2022-11-03T20:40:58.549Z,56.93
2022-11-03T20:43:27.347Z,57.25
2022-11-03T20:45:56.322Z,57.44
2022-11-03T20:48:23.980Z,57.35
2022-11-03T20:50:51.580Z,57.98
2022-11-03T20:53:19.768Z,57.99
2022-11-03T20:55:47.536Z,57.78
2022-11-03T20:58:15.933Z,58.18
2022-11-03T21:00:44.003Z,58.21
2022-11-03T21:03:31.431Z,58.31
2022-11-03T21:06:04.590Z,58.43
2022-11-03T21:08:32.222Z,58.52
2022-11-03T21:11:20.492Z,58.64
2022-11-03T21:13:48.082Z,59.20
2022-11-03T21:16:33.201Z,59.02
2022-11-03T21:19:20.042Z,59.17
2022-11-03T21:21:47.607Z,59.22
2022-11-03T21:24:15.217Z,59.12
2022-11-03T21:26:42.788Z,59.35
2022-11-03T21:29:10.355Z,59.32
2022-11-03T21:31:37.882Z,59.39
2022-11-03T21:34:06.880Z,59.21
2022-11-03T21:36:34.499Z,59.09
2022-11-03T21:39:02.100Z,59.36
2022-11-03T21:41:47.101Z,59.46
2022-11-03T21:44:17.696Z,59.52
2022-11-03T21:46:46.684Z,59.60
2022-11-03T21:49:33.324Z,59.57
2022-11-03T21:52:00.949Z,59.58
2022-11-03T21:54:28.507Z,59.75
2022-11-03T21:56:56.128Z,59.77
2022-11-03T21:59:23.864Z,59.77
2022-11-03T22:01:54.994Z,59.70
2022-11-03T22:04:24.206Z,60.03
2022-11-03T22:06:51.945Z,59.86
2022-11-03T22:09:19.581Z,60.05
2022-11-03T22:11:47.852Z,59.77
2022-11-03T22:14:15.808Z,59.83
2022-11-03T22:16:42.706Z,59.73
2022-11-03T22:19:29.439Z,59.76
2022-11-03T22:22:16.066Z,59.85
2022-11-03T22:25:01.371Z,59.83
2022-11-03T22:27:29.687Z,59.70
2022-11-03T22:30:15.368Z,59.79
2022-11-03T22:32:43.131Z,59.87
2022-11-03T22:35:29.172Z,59.98
2022-11-03T22:38:07.948Z,59.83
2022-11-03T22:40:53.230Z,59.77
2022-11-03T22:43:38.627Z,59.89
2022-11-03T22:46:06.236Z,59.85
2022-11-03T22:48:33.838Z,59.89
2022-11-03T22:51:02.862Z,59.89
2022-11-03T22:53:50.703Z,59.94
2022-11-03T22:56:18.624Z,59.91
2022-11-03T22:58:46.460Z,59.94
2022-11-03T23:01:14.932Z,60.15
2022-11-03T23:03:43.070Z,60.10
2022-11-03T23:06:12.033Z,60.00
2022-11-03T23:08:42.032Z,60.05
2022-11-03T23:11:10.451Z,60.02
2022-11-03T23:13:38.364Z,60.05
2022-11-03T23:16:13.099Z,59.99
2022-11-03T23:18:58.115Z,59.93
2022-11-03T23:21:25.745Z,60.03
2022-11-03T23:24:12.148Z,59.84
2022-11-03T23:26:39.707Z,60.13
2022-11-03T23:29:07.371Z,59.96
2022-11-03T23:31:35.023Z,59.95
2022-11-03T23:34:02.834Z,60.10
2022-11-03T23:36:30.463Z,60.12
2022-11-03T23:38:59.561Z,60.02
2022-11-03T23:41:27.243Z,60.04
2022-11-03T23:43:54.962Z,60.07
2022-11-03T23:46:41.434Z,59.88
2022-11-03T23:49:09.138Z,60.01
2022-11-03T23:51:37.263Z,60.05
2022-11-03T23:54:07.635Z,60.32
2022-11-03T23:56:53.398Z,60.06
2022-11-03T23:59:21.103Z,60.21
